WetterOnline ( https://www.wetteronline.de )

Wetter aktuell Lenzkirch

Aktuelles Wetter: Feldberg/Schwarzwald (1493m)

6-stündlich | Neueste Meldungen
Ortszeit Temperatur Wetter
Sa, 25.01. 7:00 2.2° C wolkig
Sa, 25.01. 1:00 2.9° C bedeckt
Fr, 24.01. 19:00 4.5° C wolkenlos
Fr, 24.01. 13:00 3.8° C wolkenlos
Fr, 24.01. 7:00 3.2° C wolkenlos
Fr, 24.01. 1:00 0.5° C leicht bewölkt
Do, 23.01. 19:00 6.6° C leicht bewölkt
Do, 23.01. 13:00 4.7° C fast wolkenlos
Ortszeit Temperatur Wetter
Sa, 25.01. 10:00 2.0° C leicht bewölkt
Sa, 25.01. 9:30 1.7° C wolkenlos
Sa, 25.01. 9:20 1.7° C wolkenlos
Sa, 25.01. 9:10 1.9° C wolkenlos
Sa, 25.01. 9:00 1.4° C fast wolkenlos
Sa, 25.01. 8:50 1.4° C fast wolkenlos
Sa, 25.01. 8:30 1.4° C wolkig
Sa, 25.01. 8:00 1.6° C wolkenlos
Sa, 25.01. 7:30 1.8° C leicht bewölkt
Sa, 25.01. 7:00 2.2° C wolkig
Sa, 25.01. 6:30 2.5° C bewölkt
Ortszeit Relative Feuchte Sichtweite
Sa, 25.01. 7:00 81% 30 km
Sa, 25.01. 1:00 71% 40 km
Fr, 24.01. 19:00 59% 27 km
Fr, 24.01. 13:00 71% 30 km
Fr, 24.01. 7:00 68% 35 km
Fr, 24.01. 1:00 69% 40 km
Do, 23.01. 19:00 18% >70 km
Do, 23.01. 13:00 17% >70 km
Ortszeit Relative Feuchte Sichtweite
Sa, 25.01. 10:00 83% 35 km
Sa, 25.01. 9:30 87% 30 km
Sa, 25.01. 9:20 87% -
Sa, 25.01. 9:10 80% -
Sa, 25.01. 9:00 85% 30 km
Sa, 25.01. 8:50 85% -
Sa, 25.01. 8:30 86% 35 km
Sa, 25.01. 8:00 84% 30 km
Sa, 25.01. 7:30 83% 30 km
Sa, 25.01. 7:00 81% 30 km
Sa, 25.01. 6:30 76% 30 km
Ortszeit Niederschlagsmenge Niederschlagsart
Sa, 25.01. 7:00 0.0 l/m2 in 12 Std. -
Sa, 25.01. 1:00 0.0 l/m2 in 6 Std. -
Fr, 24.01. 19:00 0.0 l/m2 in 12 Std. -
Fr, 24.01. 13:00 0.0 l/m2 in 6 Std. -
Fr, 24.01. 7:00 0.0 l/m2 in 12 Std. -
Fr, 24.01. 1:00 0.0 l/m2 in 6 Std. -
Do, 23.01. 19:00 0.1 l/m2 in 12 Std. -
Do, 23.01. 13:00 0.1 l/m2 in 6 Std. Sprühregen, Niederschlag
Ortszeit Niederschlagsmenge Niederschlagsart
Sa, 25.01. 10:00 0.0 l/m2 in 1 Std. -
Sa, 25.01. 9:30 0.0 l/m2 in 1 Std. -
Sa, 25.01. 9:20 keine Meldung -
Sa, 25.01. 9:10 keine Meldung -
Sa, 25.01. 9:00 0.0 l/m2 in 1 Std. -
Sa, 25.01. 8:50 keine Meldung -
Sa, 25.01. 8:30 0.0 l/m2 in 1 Std. -
Sa, 25.01. 8:00 0.0 l/m2 in 1 Std. -
Sa, 25.01. 7:30 0.0 l/m2 in 1 Std. -
Sa, 25.01. 7:00 0.0 l/m2 in 1 Std. -
Sa, 25.01. 6:30 0.0 l/m2 in 1 Std. -
Ortszeit Stärke Spitze Richtung
km/h Bft. km/h Grad Sektor
Sa, 25.01. 7:00 4 1 14 330° NW
Sa, 25.01. 1:00 4 1 14 50° NO
Fr, 24.01. 19:00 14 3 25 350° N
Fr, 24.01. 13:00 25 4 54 250° W
Fr, 24.01. 7:00 37 5 65 260° W
Fr, 24.01. 1:00 43 6 65 230° SW
Do, 23.01. 19:00 22 4 58 190° S
Do, 23.01. 13:00 52 7 69 100° O
Ortszeit Stärke Spitze Richtung
km/h Bft. km/h Grad Sektor
Sa, 25.01. 10:00 9 2 17 110° O
Sa, 25.01. 9:30 13 3 17 120° SO
Sa, 25.01. 9:20 13 3 - 120° SO
Sa, 25.01. 9:10 9 2 - 130° SO
Sa, 25.01. 9:00 13 3 19 120° SO
Sa, 25.01. 8:50 13 3 - 120° SO
Sa, 25.01. 8:30 14 3 18 100° O
Sa, 25.01. 8:00 14 3 14 80° O
Sa, 25.01. 7:30 6 1 7 50° NO
Sa, 25.01. 7:00 4 1 7 330° NW
Sa, 25.01. 6:30 7 2 7 270° W
Ortszeit Untergrenze Bedeckung Gattung
total tief tief mittel hoch
Sa, 25.01. 7:00 1800 m 7/8 4/8 - - -
Sa, 25.01. 1:00 2100 m 8/8 8/8 - - -
Fr, 24.01. 19:00 2400 m 0/8 0/8 - - -
Fr, 24.01. 13:00 - 0/8 0/8 - - -
Fr, 24.01. 7:00 - 0/8 0/8 - - -
Fr, 24.01. 1:00 10500 m 3/8 0/8 - - -
Do, 23.01. 19:00 10500 m 3/8 0/8 - - -
Do, 23.01. 13:00 12000 m 2/8 0/8 - - -
Ortszeit Bedeckungsgrad in Achtel und Wolkenuntergrenze
Sa, 25.01. 10:00 3(1800m) 4(10500m)
Sa, 25.01. 9:30 keine Wolken
Sa, 25.01. 9:20 keine Wolken
Sa, 25.01. 9:10 keine Wolken
Sa, 25.01. 9:00 1(10500m)
Sa, 25.01. 8:50 1(10500m)
Sa, 25.01. 8:30 5(1800m) 6(12000m)
Sa, 25.01. 8:00 1(12000m)
Sa, 25.01. 7:30 2(1800m) 3(3000m)
Sa, 25.01. 7:00 4(1800m) 7(3000m)
Sa, 25.01. 6:30 2(1800m) 7(2700m)
Ortszeit Stationsdruck (hPa) Tendenz (hPa in 3 Std.)
Sa, 25.01. 7:00 851 - 0,1
Sa, 25.01. 1:00 853 - 0,5
Fr, 24.01. 19:00 853 + 0,2
Fr, 24.01. 13:00 854 - 0,3
Fr, 24.01. 7:00 854 + 0,2
Fr, 24.01. 1:00 854 + 0,2
Do, 23.01. 19:00 854 + 0,1
Do, 23.01. 13:00 856 - 0,7
Ortszeit Stationsdruck (hPa) Tendenz (hPa in 3 Std.)
Sa, 25.01. 10:00 852 + 0,7
Sa, 25.01. 9:30 852 + 0,6
Sa, 25.01. 9:20 852 keine Meldung
Sa, 25.01. 9:10 852 keine Meldung
Sa, 25.01. 9:00 852 + 0,5
Sa, 25.01. 8:50 852 keine Meldung
Sa, 25.01. 8:30 852 + 0,3
Sa, 25.01. 8:00 852 + 0,2
Sa, 25.01. 7:30 852 0,0
Sa, 25.01. 7:00 851 - 0,1
Sa, 25.01. 6:30 851 - 0,3
Ortszeit Schneehöhe (cm)
Sa, 25.01. 7:00 62
Sa, 25.01. 1:00 62
Fr, 24.01. 19:00 62
Fr, 24.01. 13:00 63
Fr, 24.01. 7:00 63
Fr, 24.01. 1:00 63
Do, 23.01. 19:00 63
Do, 23.01. 13:00 64
Ortszeit Schneehöhe (cm)
Sa, 25.01. 10:00 62
Sa, 25.01. 9:30 62
Sa, 25.01. 9:20 62
Sa, 25.01. 9:10 62
Sa, 25.01. 9:00 62
Sa, 25.01. 8:50 62
Sa, 25.01. 8:30 62
Sa, 25.01. 8:00 62
Sa, 25.01. 7:30 62
Sa, 25.01. 7:00 62
Sa, 25.01. 6:30 62
Link zu dieser Seite / Seite empfehlen

Das Wetter in ...